CGBRI CYHZ-CYHZ
Flight info
| Callsign | CGBRI |
|---|---|
| Flight time | 0h 13m |
| Altitude | 8000 |
| Route | CYHZ4/14 OLEPA CYQM DCT CYHZ |
| Aircraft | BE60/L-V/N |
Departure
| Time | 2025-12-30 00:46 |
|---|---|
| Airport | Halifax / Stanfield International Airport (CYHZ) |
Arrival
| Time | 2025-12-30 00:59 |
|---|---|
| Airport | Halifax / Stanfield International Airport (CYHZ) |
| Time | Latitude | Longitude | Altitude | Speed | Heading |
|---|---|---|---|---|---|
| 2025-12-30 00:09 | 45.83793 | -64.77675 | 7968 ft | 228 kts | 324° |
| 2025-12-30 00:10 | 45.85205 | -64.78755 | 7902 ft | 231 kts | 325° |
| 2025-12-30 00:10 | 45.88039 | -64.80768 | 7615 ft | 230 kts | 325° |
| 2025-12-30 00:11 | 45.90747 | -64.82988 | 7053 ft | 218 kts | 319° |
| 2025-12-30 00:11 | 45.93236 | -64.85535 | 6084 ft | 214 kts | 316° |
| 2025-12-30 00:12 | 45.95593 | -64.88066 | 5136 ft | 211 kts | 317° |
| 2025-12-30 00:12 | 45.98038 | -64.90285 | 4465 ft | 202 kts | 322° |
| 2025-12-30 00:13 | 46.00439 | -64.92158 | 3999 ft | 193 kts | 323° |
| 2025-12-30 00:13 | 46.04108 | -64.93245 | 3930 ft | 183 kts | 7° |
| 2025-12-30 00:14 | 46.05399 | -64.93062 | 3790 ft | 193 kts | 10° |
| 2025-12-30 00:14 | 46.08113 | -64.92455 | 3576 ft | 197 kts | 18° |
| 2025-12-30 00:15 | 46.10348 | -64.88795 | 3010 ft | 158 kts | 95° |
| 2025-12-30 00:15 | 46.10469 | -64.87308 | 2851 ft | 144 kts | 108° |
| 2025-12-30 00:16 | 46.10189 | -64.84685 | 2634 ft | 138 kts | 107° |
| 2025-12-30 00:16 | 46.10308 | -64.81877 | 2333 ft | 138 kts | 104° |
| 2025-12-30 00:17 | 46.10470 | -64.79175 | 1905 ft | 127 kts | 103° |
| 2025-12-30 00:17 | 46.10584 | -64.76218 | 1689 ft | 89 kts | 104° |
| 2025-12-30 00:18 | 46.10571 | -64.75378 | 1525 ft | 82 kts | 105° |
| 2025-12-30 00:18 | 46.10573 | -64.73763 | 1146 ft | 84 kts | 96° |
| 2025-12-30 00:19 | 46.10603 | -64.72049 | 752 ft | 93 kts | 93° |
| 2025-12-30 00:19 | 46.10633 | -64.71128 | 637 ft | 90 kts | 91° |
| 2025-12-30 00:19 | 46.10685 | -64.69347 | 226 ft | 83 kts | 89° |
| 2025-12-30 00:20 | 46.10757 | -64.67474 | 266 ft | 92 kts | 85° |
| 2025-12-30 00:21 | 46.10885 | -64.65389 | 1312 ft | 112 kts | 95° |
| 2025-12-30 00:21 | 46.11281 | -64.63393 | 2523 ft | 125 kts | 91° |
| 2025-12-30 00:22 | 46.11565 | -64.61258 | 3409 ft | 114 kts | 118° |
| 2025-12-30 00:22 | 46.10761 | -64.59802 | 4183 ft | 100 kts | 163° |
| 2025-12-30 00:23 | 46.09499 | -64.59322 | 5060 ft | 99 kts | 169° |
| 2025-12-30 00:23 | 46.08180 | -64.58401 | 5907 ft | 104 kts | 159° |
| 2025-12-30 00:24 | 46.06906 | -64.57141 | 6623 ft | 115 kts | 153° |
| 2025-12-30 00:24 | 46.05742 | -64.55572 | 7522 ft | 120 kts | 146° |
| 2025-12-30 00:24 | 46.05187 | -64.54658 | 7961 ft | 122 kts | 144° |
| 2025-12-30 00:25 | 46.03334 | -64.52087 | 8913 ft | 139 kts | 161° |
| 2025-12-30 00:26 | 46.01520 | -64.50752 | 9045 ft | 152 kts | 166° |
| 2025-12-30 00:26 | 45.99537 | -64.49646 | 8980 ft | 156 kts | 166° |
| 2025-12-30 00:27 | 45.97499 | -64.48331 | 8951 ft | 164 kts | 161° |
| 2025-12-30 00:27 | 45.95557 | -64.46563 | 9002 ft | 165 kts | 156° |
| 2025-12-30 00:28 | 45.93632 | -64.44678 | 9070 ft | 166 kts | 154° |
| 2025-12-30 00:28 | 45.91712 | -64.42746 | 9076 ft | 167 kts | 154° |
| 2025-12-30 00:28 | 45.90757 | -64.41805 | 9037 ft | 170 kts | 155° |
| 2025-12-30 00:29 | 45.87824 | -64.38811 | 8954 ft | 173 kts | 156° |
| 2025-12-30 00:30 | 45.84742 | -64.36449 | 8911 ft | 170 kts | 159° |
| 2025-12-30 00:30 | 45.82696 | -64.34779 | 9022 ft | 165 kts | 161° |
| 2025-12-30 00:31 | 45.80672 | -64.33275 | 9186 ft | 162 kts | 159° |
| 2025-12-30 00:31 | 45.78698 | -64.31350 | 9125 ft | 171 kts | 152° |
| 2025-12-30 00:32 | 45.77704 | -64.30477 | 9109 ft | 168 kts | 163° |
| 2025-12-30 00:32 | 45.75601 | -64.28922 | 9127 ft | 168 kts | 161° |
| 2025-12-30 00:33 | 45.73497 | -64.27332 | 9163 ft | 170 kts | 160° |
| 2025-12-30 00:33 | 45.70299 | -64.24936 | 9207 ft | 175 kts | 158° |
| 2025-12-30 00:34 | 45.68195 | -64.22974 | 9135 ft | 183 kts | 153° |
| 2025-12-30 00:34 | 45.66070 | -64.20924 | 9039 ft | 185 kts | 154° |
| 2025-12-30 00:35 | 45.65003 | -64.19867 | 8968 ft | 189 kts | 154° |
| 2025-12-30 00:35 | 45.63263 | -64.17970 | 8977 ft | 189 kts | 151° |
| 2025-12-30 00:36 | 45.60886 | -64.15297 | 8945 ft | 189 kts | 153° |
| 2025-12-30 00:36 | 45.59158 | -64.13413 | 8981 ft | 186 kts | 155° |
| 2025-12-30 00:37 | 45.57089 | -64.11110 | 8976 ft | 191 kts | 149° |
| 2025-12-30 00:37 | 45.53949 | -64.07789 | 8974 ft | 183 kts | 159° |
| 2025-12-30 00:38 | 45.51745 | -64.06061 | 9059 ft | 182 kts | 158° |
| 2025-12-30 00:38 | 45.49639 | -64.03974 | 9083 ft | 183 kts | 159° |
| 2025-12-30 00:39 | 45.48563 | -64.03086 | 9132 ft | 180 kts | 161° |
| 2025-12-30 00:39 | 45.46344 | -64.01366 | 9128 ft | 182 kts | 161° |
| 2025-12-30 00:40 | 45.44161 | -63.99385 | 9067 ft | 190 kts | 155° |
| 2025-12-30 00:40 | 45.41953 | -63.97325 | 9054 ft | 188 kts | 159° |
| 2025-12-30 00:41 | 45.39679 | -63.95503 | 9034 ft | 185 kts | 162° |
| 2025-12-30 00:41 | 45.36279 | -63.92884 | 8997 ft | 182 kts | 163° |
| 2025-12-30 00:42 | 45.34186 | -63.90733 | 9109 ft | 188 kts | 153° |
| 2025-12-30 00:42 | 45.33153 | -63.89596 | 9139 ft | 186 kts | 156° |
| 2025-12-30 00:43 | 45.31008 | -63.87460 | 9135 ft | 189 kts | 155° |
| 2025-12-30 00:43 | 45.28892 | -63.85229 | 9164 ft | 189 kts | 156° |
| 2025-12-30 00:44 | 45.26706 | -63.83134 | 9131 ft | 190 kts | 157° |
| 2025-12-30 00:44 | 45.24513 | -63.81008 | 9056 ft | 194 kts | 156° |
| 2025-12-30 00:45 | 45.22322 | -63.78758 | 9057 ft | 192 kts | 153° |
| 2025-12-30 00:45 | 45.19142 | -63.75744 | 8893 ft | 181 kts | 160° |
| 2025-12-30 00:46 | 45.18020 | -63.74802 | 8616 ft | 189 kts | 160° |
| 2025-12-30 00:46 | 45.15768 | -63.72971 | 7958 ft | 188 kts | 163° |
| 2025-12-30 00:47 | 45.13505 | -63.71386 | 7087 ft | 161 kts | 163° |
| 2025-12-30 00:47 | 45.11650 | -63.69932 | 6152 ft | 142 kts | 161° |
| 2025-12-30 00:48 | 45.09995 | -63.68311 | 4967 ft | 148 kts | 154° |
| 2025-12-30 00:48 | 45.08289 | -63.66579 | 4177 ft | 145 kts | 155° |
| 2025-12-30 00:49 | 45.06661 | -63.65170 | 3872 ft | 122 kts | 159° |
| 2025-12-30 00:49 | 45.04455 | -63.65252 | 3419 ft | 119 kts | 208° |
| 2025-12-30 00:50 | 45.03785 | -63.65970 | 3119 ft | 126 kts | 206° |
| 2025-12-30 00:50 | 45.02531 | -63.67452 | 2990 ft | 114 kts | 207° |
| 2025-12-30 00:50 | 45.01990 | -63.68175 | 3026 ft | 105 kts | 208° |
| 2025-12-30 00:51 | 45.00914 | -63.69306 | 3031 ft | 93 kts | 200° |
| 2025-12-30 00:52 | 44.99263 | -63.70531 | 2978 ft | 81 kts | 176° |
| 2025-12-30 00:52 | 44.98288 | -63.69785 | 3001 ft | 94 kts | 140° |
| 2025-12-30 00:52 | 44.97974 | -63.68911 | 2946 ft | 102 kts | 133° |
| 2025-12-30 00:53 | 44.97066 | -63.66399 | 3008 ft | 88 kts | 145° |
| 2025-12-30 00:54 | 44.95846 | -63.64644 | 2951 ft | 90 kts | 142° |
| 2025-12-30 00:54 | 44.95102 | -63.63228 | 2826 ft | 91 kts | 140° |
| 2025-12-30 00:55 | 44.94748 | -63.62463 | 2722 ft | 95 kts | 139° |
| 2025-12-30 00:55 | 44.94015 | -63.60967 | 2578 ft | 80 kts | 142° |
| 2025-12-30 00:56 | 44.93342 | -63.59554 | 2043 ft | 97 kts | 136° |
| 2025-12-30 00:56 | 44.92461 | -63.58140 | 1452 ft | 94 kts | 136° |
| 2025-12-30 00:56 | 44.92094 | -63.57473 | 1420 ft | 83 kts | 120° |
| 2025-12-30 00:57 | 44.91160 | -63.55345 | 1056 ft | 91 kts | 123° |
| 2025-12-30 00:58 | 44.90421 | -63.53869 | 1007 ft | 95 kts | 126° |
| 2025-12-30 00:58 | 44.89659 | -63.52325 | 663 ft | 96 kts | 126° |
| 2025-12-30 00:59 | 44.89076 | -63.51150 | 450 ft | 41 kts | 125° |
| 2025-12-30 00:59 | 44.88843 | -63.50803 | 451 ft | 14 kts | 214° |
| 2025-12-30 01:00 | 44.88792 | -63.50859 | 451 ft | 0 kts | 216° |
| 2025-12-30 01:00 | 44.88726 | -63.50940 | 451 ft | 15 kts | 242° |
| 2025-12-30 01:01 | 44.88605 | -63.51241 | 451 ft | 12 kts | 171° |
| 2025-12-30 01:02 | 44.88365 | -63.51334 | 452 ft | 12 kts | 288° |
| 2025-12-30 01:02 | 44.88397 | -63.51411 | 452 ft | 0 kts | 302° |